<?xml version="1.0" encoding="UTF-8" standalone="no" ?>
<gpx xmlns="http://www.topografix.com/GPX/1/1" xmlns:xsi="http://www.w3.org/2001/XMLSchema-instance" xsi:schemaLocation="http://www.topografix.com/GPX/1/1 http://www.topografix.com/GPX/1/1/gpx.xsd" version="1.1" creator="VisuGPX - https://www.visugpx.com">
  <metadata>
    <name>plateau ventabren par laure et rémy</name>
    <desc><![CDATA[à pieds sur le plateau de ventabren]]></desc>
  </metadata>
  <trk>
    <name><![CDATA[Running 4/25/11 11:07 am]]></name>
    <trkseg>
      <trkpt lat="43.53488" lon="5.29925">
        <ele>244.5</ele>
        <time>2011-04-25T11:07:42Z</time>
      </trkpt>
      <trkpt lat="43.53478" lon="5.29911">
        <ele>245</ele>
        <time>2011-04-25T11:07:43Z</time>
      </trkpt>
      <trkpt lat="43.53461" lon="5.29882">
        <ele>245.4</ele>
        <time>2011-04-25T11:07:47Z</time>
      </trkpt>
      <trkpt lat="43.53446" lon="5.29848">
        <ele>245.7</ele>
        <time>2011-04-25T11:08:12Z</time>
      </trkpt>
      <trkpt lat="43.53437" lon="5.29821">
        <ele>245.9</ele>
        <time>2011-04-25T11:08:34Z</time>
      </trkpt>
      <trkpt lat="43.5343" lon="5.29802">
        <ele>246.1</ele>
        <time>2011-04-25T11:08:47Z</time>
      </trkpt>
      <trkpt lat="43.53405" lon="5.29739">
        <ele>246.5</ele>
        <time>2011-04-25T11:09:31Z</time>
      </trkpt>
      <trkpt lat="43.53378" lon="5.29691">
        <ele>247</ele>
        <time>2011-04-25T11:09:56Z</time>
      </trkpt>
      <trkpt lat="43.53337" lon="5.29664">
        <ele>247.2</ele>
        <time>2011-04-25T11:10:32Z</time>
      </trkpt>
      <trkpt lat="43.53287" lon="5.2968">
        <ele>247.5</ele>
        <time>2011-04-25T11:11:02Z</time>
      </trkpt>
      <trkpt lat="43.53276" lon="5.29682">
        <ele>247.4</ele>
        <time>2011-04-25T11:11:10Z</time>
      </trkpt>
      <trkpt lat="43.53261" lon="5.29685">
        <ele>247.3</ele>
        <time>2011-04-25T11:11:24Z</time>
      </trkpt>
      <trkpt lat="43.53246" lon="5.29689">
        <ele>246.9</ele>
        <time>2011-04-25T11:11:31Z</time>
      </trkpt>
      <trkpt lat="43.53228" lon="5.29696">
        <ele>246.5</ele>
        <time>2011-04-25T11:11:42Z</time>
      </trkpt>
      <trkpt lat="43.53212" lon="5.29701">
        <ele>246.2</ele>
        <time>2011-04-25T11:11:52Z</time>
      </trkpt>
      <trkpt lat="43.53193" lon="5.29707">
        <ele>245.2</ele>
        <time>2011-04-25T11:12:04Z</time>
      </trkpt>
      <trkpt lat="43.53178" lon="5.29715">
        <ele>244.2</ele>
        <time>2011-04-25T11:12:14Z</time>
      </trkpt>
      <trkpt lat="43.53163" lon="5.29725">
        <ele>243.2</ele>
        <time>2011-04-25T11:12:23Z</time>
      </trkpt>
      <trkpt lat="43.53145" lon="5.29742">
        <ele>242.2</ele>
        <time>2011-04-25T11:12:36Z</time>
      </trkpt>
      <trkpt lat="43.5313" lon="5.29758">
        <ele>241.2</ele>
        <time>2011-04-25T11:12:49Z</time>
      </trkpt>
      <trkpt lat="43.53109" lon="5.29769">
        <ele>239.7</ele>
        <time>2011-04-25T11:13:09Z</time>
      </trkpt>
      <trkpt lat="43.53092" lon="5.29767">
        <ele>238.6</ele>
        <time>2011-04-25T11:13:19Z</time>
      </trkpt>
      <trkpt lat="43.53076" lon="5.29763">
        <ele>237.5</ele>
        <time>2011-04-25T11:13:28Z</time>
      </trkpt>
      <trkpt lat="43.53061" lon="5.29768">
        <ele>236.5</ele>
        <time>2011-04-25T11:13:38Z</time>
      </trkpt>
      <trkpt lat="43.53046" lon="5.29783">
        <ele>235.4</ele>
        <time>2011-04-25T11:13:49Z</time>
      </trkpt>
      <trkpt lat="43.53034" lon="5.29798">
        <ele>233.9</ele>
        <time>2011-04-25T11:13:58Z</time>
      </trkpt>
      <trkpt lat="43.53023" lon="5.29813">
        <ele>233.1</ele>
        <time>2011-04-25T11:14:07Z</time>
      </trkpt>
      <trkpt lat="43.53014" lon="5.29819">
        <ele>232.3</ele>
        <time>2011-04-25T11:14:14Z</time>
      </trkpt>
      <trkpt lat="43.52999" lon="5.29821">
        <ele>230.7</ele>
        <time>2011-04-25T11:14:32Z</time>
      </trkpt>
      <trkpt lat="43.52976" lon="5.29817">
        <ele>229.2</ele>
        <time>2011-04-25T11:14:47Z</time>
      </trkpt>
      <trkpt lat="43.5296" lon="5.29812">
        <ele>228.5</ele>
        <time>2011-04-25T11:14:57Z</time>
      </trkpt>
      <trkpt lat="43.52916" lon="5.298">
        <ele>228.4</ele>
        <time>2011-04-25T11:15:27Z</time>
      </trkpt>
      <trkpt lat="43.52897" lon="5.29803">
        <ele>228.2</ele>
        <time>2011-04-25T11:15:39Z</time>
      </trkpt>
      <trkpt lat="43.5288" lon="5.29801">
        <ele>228.5</ele>
        <time>2011-04-25T11:15:50Z</time>
      </trkpt>
      <trkpt lat="43.5286" lon="5.29797">
        <ele>228.7</ele>
        <time>2011-04-25T11:16:05Z</time>
      </trkpt>
      <trkpt lat="43.52851" lon="5.29793">
        <ele>228.1</ele>
        <time>2011-04-25T11:16:11Z</time>
      </trkpt>
      <trkpt lat="43.52823" lon="5.29782">
        <ele>227.8</ele>
        <time>2011-04-25T11:16:29Z</time>
      </trkpt>
      <trkpt lat="43.52807" lon="5.29783">
        <ele>228</ele>
        <time>2011-04-25T11:16:40Z</time>
      </trkpt>
      <trkpt lat="43.52789" lon="5.29787">
        <ele>228.2</ele>
        <time>2011-04-25T11:16:56Z</time>
      </trkpt>
      <trkpt lat="43.52772" lon="5.29792">
        <ele>229.1</ele>
        <time>2011-04-25T11:17:07Z</time>
      </trkpt>
      <trkpt lat="43.5275" lon="5.29798">
        <ele>230</ele>
        <time>2011-04-25T11:17:19Z</time>
      </trkpt>
      <trkpt lat="43.52727" lon="5.29805">
        <ele>230</ele>
        <time>2011-04-25T11:17:33Z</time>
      </trkpt>
      <trkpt lat="43.52707" lon="5.29809">
        <ele>230</ele>
        <time>2011-04-25T11:17:50Z</time>
      </trkpt>
      <trkpt lat="43.52683" lon="5.29816">
        <ele>230.3</ele>
        <time>2011-04-25T11:18:07Z</time>
      </trkpt>
      <trkpt lat="43.52669" lon="5.29826">
        <ele>230.1</ele>
        <time>2011-04-25T11:18:16Z</time>
      </trkpt>
      <trkpt lat="43.52662" lon="5.29834">
        <ele>229.9</ele>
        <time>2011-04-25T11:18:21Z</time>
      </trkpt>
      <trkpt lat="43.52649" lon="5.29848">
        <ele>230.6</ele>
        <time>2011-04-25T11:18:30Z</time>
      </trkpt>
      <trkpt lat="43.52634" lon="5.29861">
        <ele>231.4</ele>
        <time>2011-04-25T11:18:39Z</time>
      </trkpt>
      <trkpt lat="43.52618" lon="5.29876">
        <ele>231.6</ele>
        <time>2011-04-25T11:18:50Z</time>
      </trkpt>
      <trkpt lat="43.52604" lon="5.29892">
        <ele>231.7</ele>
        <time>2011-04-25T11:19:01Z</time>
      </trkpt>
      <trkpt lat="43.52591" lon="5.29906">
        <ele>231.6</ele>
        <time>2011-04-25T11:19:11Z</time>
      </trkpt>
      <trkpt lat="43.52579" lon="5.29919">
        <ele>231.5</ele>
        <time>2011-04-25T11:19:21Z</time>
      </trkpt>
      <trkpt lat="43.52567" lon="5.29934">
        <ele>231.5</ele>
        <time>2011-04-25T11:19:31Z</time>
      </trkpt>
      <trkpt lat="43.52552" lon="5.2995">
        <ele>231.4</ele>
        <time>2011-04-25T11:19:42Z</time>
      </trkpt>
      <trkpt lat="43.52534" lon="5.29967">
        <ele>231</ele>
        <time>2011-04-25T11:19:55Z</time>
      </trkpt>
      <trkpt lat="43.52519" lon="5.29987">
        <ele>229.9</ele>
        <time>2011-04-25T11:20:08Z</time>
      </trkpt>
      <trkpt lat="43.52506" lon="5.30006">
        <ele>228.8</ele>
        <time>2011-04-25T11:20:20Z</time>
      </trkpt>
      <trkpt lat="43.52495" lon="5.30023">
        <ele>227.7</ele>
        <time>2011-04-25T11:20:30Z</time>
      </trkpt>
      <trkpt lat="43.52483" lon="5.30038">
        <ele>226.6</ele>
        <time>2011-04-25T11:20:40Z</time>
      </trkpt>
      <trkpt lat="43.5247" lon="5.3005">
        <ele>225.5</ele>
        <time>2011-04-25T11:20:49Z</time>
      </trkpt>
      <trkpt lat="43.52455" lon="5.30059">
        <ele>224.3</ele>
        <time>2011-04-25T11:20:59Z</time>
      </trkpt>
      <trkpt lat="43.52439" lon="5.30065">
        <ele>223.2</ele>
        <time>2011-04-25T11:21:10Z</time>
      </trkpt>
      <trkpt lat="43.52423" lon="5.30075">
        <ele>222.1</ele>
        <time>2011-04-25T11:21:21Z</time>
      </trkpt>
      <trkpt lat="43.52405" lon="5.30089">
        <ele>220.8</ele>
        <time>2011-04-25T11:21:34Z</time>
      </trkpt>
      <trkpt lat="43.52388" lon="5.30101">
        <ele>219.5</ele>
        <time>2011-04-25T11:21:48Z</time>
      </trkpt>
      <trkpt lat="43.52373" lon="5.30109">
        <ele>218.3</ele>
        <time>2011-04-25T11:21:59Z</time>
      </trkpt>
      <trkpt lat="43.52355" lon="5.3012">
        <ele>216.8</ele>
        <time>2011-04-25T11:22:11Z</time>
      </trkpt>
      <trkpt lat="43.52341" lon="5.3013">
        <ele>215.4</ele>
        <time>2011-04-25T11:22:21Z</time>
      </trkpt>
      <trkpt lat="43.52327" lon="5.30143">
        <ele>213.9</ele>
        <time>2011-04-25T11:22:32Z</time>
      </trkpt>
      <trkpt lat="43.52313" lon="5.30153">
        <ele>212.5</ele>
        <time>2011-04-25T11:22:43Z</time>
      </trkpt>
      <trkpt lat="43.52299" lon="5.30165">
        <ele>210.6</ele>
        <time>2011-04-25T11:22:58Z</time>
      </trkpt>
      <trkpt lat="43.52285" lon="5.30176">
        <ele>208.7</ele>
        <time>2011-04-25T11:23:11Z</time>
      </trkpt>
      <trkpt lat="43.52268" lon="5.30189">
        <ele>206.8</ele>
        <time>2011-04-25T11:23:22Z</time>
      </trkpt>
      <trkpt lat="43.52254" lon="5.30201">
        <ele>204.9</ele>
        <time>2011-04-25T11:23:30Z</time>
      </trkpt>
      <trkpt lat="43.52241" lon="5.30214">
        <ele>203.2</ele>
        <time>2011-04-25T11:23:38Z</time>
      </trkpt>
      <trkpt lat="43.52223" lon="5.30237">
        <ele>201.5</ele>
        <time>2011-04-25T11:23:57Z</time>
      </trkpt>
      <trkpt lat="43.52207" lon="5.30257">
        <ele>199.7</ele>
        <time>2011-04-25T11:24:11Z</time>
      </trkpt>
      <trkpt lat="43.5219" lon="5.30279">
        <ele>198.1</ele>
        <time>2011-04-25T11:24:24Z</time>
      </trkpt>
      <trkpt lat="43.52176" lon="5.30294">
        <ele>196.5</ele>
        <time>2011-04-25T11:24:34Z</time>
      </trkpt>
      <trkpt lat="43.52163" lon="5.30311">
        <ele>194.8</ele>
        <time>2011-04-25T11:24:51Z</time>
      </trkpt>
      <trkpt lat="43.52157" lon="5.30341">
        <ele>192</ele>
        <time>2011-04-25T11:25:06Z</time>
      </trkpt>
      <trkpt lat="43.52161" lon="5.30367">
        <ele>189.5</ele>
        <time>2011-04-25T11:25:16Z</time>
      </trkpt>
      <trkpt lat="43.52166" lon="5.30393">
        <ele>187.5</ele>
        <time>2011-04-25T11:25:28Z</time>
      </trkpt>
      <trkpt lat="43.52171" lon="5.3042">
        <ele>185.5</ele>
        <time>2011-04-25T11:25:41Z</time>
      </trkpt>
      <trkpt lat="43.52177" lon="5.3044">
        <ele>183.2</ele>
        <time>2011-04-25T11:25:57Z</time>
      </trkpt>
      <trkpt lat="43.52192" lon="5.30473">
        <ele>180.8</ele>
        <time>2011-04-25T11:26:35Z</time>
      </trkpt>
      <trkpt lat="43.52201" lon="5.30497">
        <ele>178.5</ele>
        <time>2011-04-25T11:26:57Z</time>
      </trkpt>
      <trkpt lat="43.52203" lon="5.30524">
        <ele>177.3</ele>
        <time>2011-04-25T11:27:12Z</time>
      </trkpt>
      <trkpt lat="43.5218" lon="5.30546">
        <ele>176.9</ele>
        <time>2011-04-25T11:27:40Z</time>
      </trkpt>
      <trkpt lat="43.52172" lon="5.30556">
        <ele>176.5</ele>
        <time>2011-04-25T11:27:47Z</time>
      </trkpt>
      <trkpt lat="43.52167" lon="5.30582">
        <ele>175.7</ele>
        <time>2011-04-25T11:28:00Z</time>
      </trkpt>
      <trkpt lat="43.52169" lon="5.3061">
        <ele>176.1</ele>
        <time>2011-04-25T11:28:16Z</time>
      </trkpt>
      <trkpt lat="43.52173" lon="5.30639">
        <ele>177.5</ele>
        <time>2011-04-25T11:28:33Z</time>
      </trkpt>
      <trkpt lat="43.52175" lon="5.30664">
        <ele>178.8</ele>
        <time>2011-04-25T11:28:48Z</time>
      </trkpt>
      <trkpt lat="43.52159" lon="5.30674">
        <ele>180.4</ele>
        <time>2011-04-25T11:29:12Z</time>
      </trkpt>
      <trkpt lat="43.52118" lon="5.30682">
        <ele>182.3</ele>
        <time>2011-04-25T11:29:46Z</time>
      </trkpt>
      <trkpt lat="43.52104" lon="5.30696">
        <ele>184</ele>
        <time>2011-04-25T11:30:01Z</time>
      </trkpt>
      <trkpt lat="43.52107" lon="5.30722">
        <ele>185.7</ele>
        <time>2011-04-25T11:30:18Z</time>
      </trkpt>
      <trkpt lat="43.52112" lon="5.30755">
        <ele>186.3</ele>
        <time>2011-04-25T11:30:45Z</time>
      </trkpt>
      <trkpt lat="43.5209" lon="5.30802">
        <ele>186.8</ele>
        <time>2011-04-25T11:31:24Z</time>
      </trkpt>
      <trkpt lat="43.52111" lon="5.30855">
        <ele>187.4</ele>
        <time>2011-04-25T11:31:57Z</time>
      </trkpt>
      <trkpt lat="43.5213" lon="5.30888">
        <ele>188.4</ele>
        <time>2011-04-25T11:32:21Z</time>
      </trkpt>
      <trkpt lat="43.52139" lon="5.30906">
        <ele>189.6</ele>
        <time>2011-04-25T11:32:32Z</time>
      </trkpt>
      <trkpt lat="43.52154" lon="5.30915">
        <ele>189.9</ele>
        <time>2011-04-25T11:32:44Z</time>
      </trkpt>
      <trkpt lat="43.52169" lon="5.30919">
        <ele>190.2</ele>
        <time>2011-04-25T11:32:54Z</time>
      </trkpt>
      <trkpt lat="43.52187" lon="5.3092">
        <ele>190.3</ele>
        <time>2011-04-25T11:33:06Z</time>
      </trkpt>
      <trkpt lat="43.52202" lon="5.3092">
        <ele>190.4</ele>
        <time>2011-04-25T11:33:14Z</time>
      </trkpt>
      <trkpt lat="43.52217" lon="5.30927">
        <ele>189.5</ele>
        <time>2011-04-25T11:33:25Z</time>
      </trkpt>
      <trkpt lat="43.52233" lon="5.30939">
        <ele>188.7</ele>
        <time>2011-04-25T11:33:39Z</time>
      </trkpt>
      <trkpt lat="43.52249" lon="5.30951">
        <ele>187.9</ele>
        <time>2011-04-25T11:33:50Z</time>
      </trkpt>
      <trkpt lat="43.52267" lon="5.30964">
        <ele>187.1</ele>
        <time>2011-04-25T11:33:59Z</time>
      </trkpt>
      <trkpt lat="43.52283" lon="5.30969">
        <ele>187.4</ele>
        <time>2011-04-25T11:34:08Z</time>
      </trkpt>
      <trkpt lat="43.52299" lon="5.30972">
        <ele>187.6</ele>
        <time>2011-04-25T11:34:17Z</time>
      </trkpt>
      <trkpt lat="43.52317" lon="5.30983">
        <ele>187.6</ele>
        <time>2011-04-25T11:34:34Z</time>
      </trkpt>
      <trkpt lat="43.52316" lon="5.31006">
        <ele>187.6</ele>
        <time>2011-04-25T11:34:55Z</time>
      </trkpt>
      <trkpt lat="43.5232" lon="5.30994">
        <ele>186.9</ele>
        <time>2011-04-25T11:35:25Z</time>
      </trkpt>
      <trkpt lat="43.5233" lon="5.30964">
        <ele>186.2</ele>
        <time>2011-04-25T11:35:46Z</time>
      </trkpt>
      <trkpt lat="43.52346" lon="5.30946">
        <ele>186.5</ele>
        <time>2011-04-25T11:35:59Z</time>
      </trkpt>
      <trkpt lat="43.5236" lon="5.30931">
        <ele>187.8</ele>
        <time>2011-04-25T11:36:08Z</time>
      </trkpt>
      <trkpt lat="43.52372" lon="5.30917">
        <ele>189.8</ele>
        <time>2011-04-25T11:36:16Z</time>
      </trkpt>
      <trkpt lat="43.52382" lon="5.30898">
        <ele>191.8</ele>
        <time>2011-04-25T11:36:25Z</time>
      </trkpt>
      <trkpt lat="43.52389" lon="5.3088">
        <ele>193.8</ele>
        <time>2011-04-25T11:36:34Z</time>
      </trkpt>
      <trkpt lat="43.52399" lon="5.30853">
        <ele>194.7</ele>
        <time>2011-04-25T11:36:50Z</time>
      </trkpt>
      <trkpt lat="43.52404" lon="5.30816">
        <ele>195.3</ele>
        <time>2011-04-25T11:37:24Z</time>
      </trkpt>
      <trkpt lat="43.52407" lon="5.30783">
        <ele>196.7</ele>
        <time>2011-04-25T11:37:40Z</time>
      </trkpt>
      <trkpt lat="43.52424" lon="5.30761">
        <ele>198.2</ele>
        <time>2011-04-25T11:37:55Z</time>
      </trkpt>
      <trkpt lat="43.52437" lon="5.30751">
        <ele>200.4</ele>
        <time>2011-04-25T11:38:03Z</time>
      </trkpt>
      <trkpt lat="43.52455" lon="5.30737">
        <ele>202.5</ele>
        <time>2011-04-25T11:38:13Z</time>
      </trkpt>
      <trkpt lat="43.52466" lon="5.30722">
        <ele>203.7</ele>
        <time>2011-04-25T11:38:21Z</time>
      </trkpt>
      <trkpt lat="43.52478" lon="5.30701">
        <ele>205.5</ele>
        <time>2011-04-25T11:38:33Z</time>
      </trkpt>
      <trkpt lat="43.52488" lon="5.30682">
        <ele>206.5</ele>
        <time>2011-04-25T11:38:44Z</time>
      </trkpt>
      <trkpt lat="43.52496" lon="5.30663">
        <ele>207.6</ele>
        <time>2011-04-25T11:38:55Z</time>
      </trkpt>
      <trkpt lat="43.52512" lon="5.30645">
        <ele>208.7</ele>
        <time>2011-04-25T11:39:11Z</time>
      </trkpt>
      <trkpt lat="43.52536" lon="5.30638">
        <ele>210.3</ele>
        <time>2011-04-25T11:39:27Z</time>
      </trkpt>
      <trkpt lat="43.52549" lon="5.30616">
        <ele>212.2</ele>
        <time>2011-04-25T11:39:50Z</time>
      </trkpt>
      <trkpt lat="43.52555" lon="5.30591">
        <ele>213.8</ele>
        <time>2011-04-25T11:40:04Z</time>
      </trkpt>
      <trkpt lat="43.5256" lon="5.30567">
        <ele>215.5</ele>
        <time>2011-04-25T11:40:13Z</time>
      </trkpt>
      <trkpt lat="43.52568" lon="5.30548">
        <ele>217.1</ele>
        <time>2011-04-25T11:40:23Z</time>
      </trkpt>
      <trkpt lat="43.52584" lon="5.3054">
        <ele>218.7</ele>
        <time>2011-04-25T11:40:35Z</time>
      </trkpt>
      <trkpt lat="43.52608" lon="5.30543">
        <ele>220.4</ele>
        <time>2011-04-25T11:40:50Z</time>
      </trkpt>
      <trkpt lat="43.5263" lon="5.30542">
        <ele>221.3</ele>
        <time>2011-04-25T11:41:02Z</time>
      </trkpt>
      <trkpt lat="43.52645" lon="5.30535">
        <ele>222.2</ele>
        <time>2011-04-25T11:41:12Z</time>
      </trkpt>
      <trkpt lat="43.5266" lon="5.30528">
        <ele>223.1</ele>
        <time>2011-04-25T11:41:22Z</time>
      </trkpt>
      <trkpt lat="43.52675" lon="5.30523">
        <ele>224.5</ele>
        <time>2011-04-25T11:41:33Z</time>
      </trkpt>
      <trkpt lat="43.52693" lon="5.30516">
        <ele>225.5</ele>
        <time>2011-04-25T11:41:51Z</time>
      </trkpt>
      <trkpt lat="43.5271" lon="5.30508">
        <ele>226.5</ele>
        <time>2011-04-25T11:42:00Z</time>
      </trkpt>
      <trkpt lat="43.5272" lon="5.30491">
        <ele>226.9</ele>
        <time>2011-04-25T11:42:11Z</time>
      </trkpt>
      <trkpt lat="43.52733" lon="5.30469">
        <ele>227</ele>
        <time>2011-04-25T11:42:23Z</time>
      </trkpt>
      <trkpt lat="43.52746" lon="5.30455">
        <ele>227.1</ele>
        <time>2011-04-25T11:42:34Z</time>
      </trkpt>
      <trkpt lat="43.52758" lon="5.30441">
        <ele>227.9</ele>
        <time>2011-04-25T11:42:44Z</time>
      </trkpt>
      <trkpt lat="43.5277" lon="5.30426">
        <ele>228.7</ele>
        <time>2011-04-25T11:42:57Z</time>
      </trkpt>
      <trkpt lat="43.52785" lon="5.30414">
        <ele>229.7</ele>
        <time>2011-04-25T11:43:08Z</time>
      </trkpt>
      <trkpt lat="43.52804" lon="5.304">
        <ele>230.7</ele>
        <time>2011-04-25T11:43:21Z</time>
      </trkpt>
      <trkpt lat="43.52818" lon="5.30387">
        <ele>231.7</ele>
        <time>2011-04-25T11:43:31Z</time>
      </trkpt>
      <trkpt lat="43.52838" lon="5.30372">
        <ele>232.2</ele>
        <time>2011-04-25T11:43:45Z</time>
      </trkpt>
      <trkpt lat="43.52855" lon="5.30364">
        <ele>232.6</ele>
        <time>2011-04-25T11:43:56Z</time>
      </trkpt>
      <trkpt lat="43.52873" lon="5.30354">
        <ele>233.1</ele>
        <time>2011-04-25T11:44:13Z</time>
      </trkpt>
      <trkpt lat="43.52891" lon="5.30348">
        <ele>233.9</ele>
        <time>2011-04-25T11:44:28Z</time>
      </trkpt>
      <trkpt lat="43.52915" lon="5.30337">
        <ele>235</ele>
        <time>2011-04-25T11:44:44Z</time>
      </trkpt>
      <trkpt lat="43.52928" lon="5.30324">
        <ele>236.1</ele>
        <time>2011-04-25T11:44:53Z</time>
      </trkpt>
      <trkpt lat="43.52942" lon="5.30312">
        <ele>236.5</ele>
        <time>2011-04-25T11:45:01Z</time>
      </trkpt>
      <trkpt lat="43.52966" lon="5.30308">
        <ele>236.8</ele>
        <time>2011-04-25T11:45:15Z</time>
      </trkpt>
      <trkpt lat="43.52981" lon="5.30293">
        <ele>237.2</ele>
        <time>2011-04-25T11:45:26Z</time>
      </trkpt>
      <trkpt lat="43.52985" lon="5.30271">
        <ele>237.5</ele>
        <time>2011-04-25T11:45:38Z</time>
      </trkpt>
      <trkpt lat="43.52988" lon="5.30249">
        <ele>237.9</ele>
        <time>2011-04-25T11:45:50Z</time>
      </trkpt>
      <trkpt lat="43.52999" lon="5.30229">
        <ele>238.2</ele>
        <time>2011-04-25T11:46:00Z</time>
      </trkpt>
      <trkpt lat="43.53006" lon="5.30219">
        <ele>238.5</ele>
        <time>2011-04-25T11:46:06Z</time>
      </trkpt>
      <trkpt lat="43.53015" lon="5.30197">
        <ele>238.7</ele>
        <time>2011-04-25T11:46:20Z</time>
      </trkpt>
      <trkpt lat="43.53021" lon="5.30164">
        <ele>239</ele>
        <time>2011-04-25T11:46:37Z</time>
      </trkpt>
      <trkpt lat="43.53026" lon="5.30142">
        <ele>239.3</ele>
        <time>2011-04-25T11:46:48Z</time>
      </trkpt>
      <trkpt lat="43.5303" lon="5.3012">
        <ele>239.5</ele>
        <time>2011-04-25T11:46:59Z</time>
      </trkpt>
      <trkpt lat="43.53036" lon="5.30099">
        <ele>239.8</ele>
        <time>2011-04-25T11:47:08Z</time>
      </trkpt>
      <trkpt lat="43.53042" lon="5.30076">
        <ele>239.6</ele>
        <time>2011-04-25T11:47:17Z</time>
      </trkpt>
      <trkpt lat="43.53049" lon="5.30056">
        <ele>239.5</ele>
        <time>2011-04-25T11:47:27Z</time>
      </trkpt>
      <trkpt lat="43.53051" lon="5.30034">
        <ele>239.3</ele>
        <time>2011-04-25T11:47:38Z</time>
      </trkpt>
      <trkpt lat="43.53052" lon="5.30012">
        <ele>239.1</ele>
        <time>2011-04-25T11:47:46Z</time>
      </trkpt>
      <trkpt lat="43.53051" lon="5.29988">
        <ele>238.5</ele>
        <time>2011-04-25T11:47:56Z</time>
      </trkpt>
      <trkpt lat="43.5305" lon="5.29963">
        <ele>237.9</ele>
        <time>2011-04-25T11:48:09Z</time>
      </trkpt>
      <trkpt lat="43.5305" lon="5.2994">
        <ele>237.4</ele>
        <time>2011-04-25T11:48:20Z</time>
      </trkpt>
      <trkpt lat="43.5305" lon="5.29928">
        <ele>236.5</ele>
        <time>2011-04-25T11:48:26Z</time>
      </trkpt>
      <trkpt lat="43.53046" lon="5.29905">
        <ele>235.5</ele>
        <time>2011-04-25T11:48:36Z</time>
      </trkpt>
      <trkpt lat="43.53041" lon="5.29882">
        <ele>235.1</ele>
        <time>2011-04-25T11:48:47Z</time>
      </trkpt>
      <trkpt lat="43.53037" lon="5.29862">
        <ele>234.6</ele>
        <time>2011-04-25T11:48:58Z</time>
      </trkpt>
      <trkpt lat="43.53034" lon="5.2984">
        <ele>234.6</ele>
        <time>2011-04-25T11:49:09Z</time>
      </trkpt>
      <trkpt lat="43.53035" lon="5.29818">
        <ele>234.6</ele>
        <time>2011-04-25T11:49:20Z</time>
      </trkpt>
      <trkpt lat="43.53045" lon="5.29804">
        <ele>234.6</ele>
        <time>2011-04-25T11:49:30Z</time>
      </trkpt>
      <trkpt lat="43.5306" lon="5.29796">
        <ele>235.3</ele>
        <time>2011-04-25T11:49:45Z</time>
      </trkpt>
      <trkpt lat="43.53074" lon="5.29787">
        <ele>236.5</ele>
        <time>2011-04-25T11:49:55Z</time>
      </trkpt>
      <trkpt lat="43.53089" lon="5.29778">
        <ele>237.5</ele>
        <time>2011-04-25T11:50:05Z</time>
      </trkpt>
      <trkpt lat="43.53105" lon="5.29771">
        <ele>238.6</ele>
        <time>2011-04-25T11:50:18Z</time>
      </trkpt>
      <trkpt lat="43.53115" lon="5.29768">
        <ele>239.7</ele>
        <time>2011-04-25T11:50:26Z</time>
      </trkpt>
      <trkpt lat="43.53129" lon="5.29759">
        <ele>240.8</ele>
        <time>2011-04-25T11:50:36Z</time>
      </trkpt>
      <trkpt lat="43.5314" lon="5.29749">
        <ele>241.8</ele>
        <time>2011-04-25T11:50:44Z</time>
      </trkpt>
      <trkpt lat="43.53153" lon="5.29737">
        <ele>242.8</ele>
        <time>2011-04-25T11:50:52Z</time>
      </trkpt>
      <trkpt lat="43.5317" lon="5.29722">
        <ele>243.8</ele>
        <time>2011-04-25T11:51:02Z</time>
      </trkpt>
      <trkpt lat="43.53185" lon="5.29711">
        <ele>244.8</ele>
        <time>2011-04-25T11:51:11Z</time>
      </trkpt>
      <trkpt lat="43.53209" lon="5.29702">
        <ele>245.8</ele>
        <time>2011-04-25T11:51:35Z</time>
      </trkpt>
      <trkpt lat="43.53219" lon="5.297">
        <ele>246.2</ele>
        <time>2011-04-25T11:51:39Z</time>
      </trkpt>
      <trkpt lat="43.53237" lon="5.29694">
        <ele>246.5</ele>
        <time>2011-04-25T11:51:52Z</time>
      </trkpt>
      <trkpt lat="43.53248" lon="5.29691">
        <ele>246.9</ele>
        <time>2011-04-25T11:51:58Z</time>
      </trkpt>
      <trkpt lat="43.53272" lon="5.2969">
        <ele>247</ele>
        <time>2011-04-25T11:52:16Z</time>
      </trkpt>
      <trkpt lat="43.53288" lon="5.29687">
        <ele>247.1</ele>
        <time>2011-04-25T11:52:27Z</time>
      </trkpt>
      <trkpt lat="43.53308" lon="5.29682">
        <ele>247.2</ele>
        <time>2011-04-25T11:52:39Z</time>
      </trkpt>
      <trkpt lat="43.53323" lon="5.29673">
        <ele>247.1</ele>
        <time>2011-04-25T11:52:48Z</time>
      </trkpt>
      <trkpt lat="43.53326" lon="5.29651">
        <ele>247</ele>
        <time>2011-04-25T11:52:59Z</time>
      </trkpt>
      <trkpt lat="43.53319" lon="5.29625">
        <ele>246.9</ele>
        <time>2011-04-25T11:53:13Z</time>
      </trkpt>
      <trkpt lat="43.53317" lon="5.296">
        <ele>246.7</ele>
        <time>2011-04-25T11:53:28Z</time>
      </trkpt>
      <trkpt lat="43.53315" lon="5.29611">
        <ele>246.5</ele>
        <time>2011-04-25T11:54:24Z</time>
      </trkpt>
    </trkseg>
  </trk>
</gpx>